sensor_id;sensor_type;location;lat;lon;timestamp;pressure;altitude;pressure_sealevel;temperature;humidity
76994;BME280;66749;47.406;18.822;2023-02-28T00:00:07;101489.69;;;2.03;56.26
76994;BME280;66749;47.406;18.822;2023-02-28T00:00:42;101492.25;;;2.06;55.99
76994;BME280;66749;47.406;18.822;2023-02-28T00:01:14;101488.81;;;2.07;55.95
76994;BME280;66749;47.406;18.822;2023-02-28T00:01:47;101482.81;;;2.04;55.80
76994;BME280;66749;47.406;18.822;2023-02-28T00:02:18;101489.69;;;2.05;55.73
76994;BME280;66749;47.406;18.822;2023-02-28T00:02:50;101490.53;;;2.07;56.00
76994;BME280;66749;47.406;18.822;2023-02-28T00:03:22;101495.66;;;2.10;55.91
76994;BME280;66749;47.406;18.822;2023-02-28T00:03:53;101493.09;;;2.08;55.85
76994;BME280;66749;47.406;18.822;2023-02-28T00:04:25;101500.84;;;2.08;55.40
76994;BME280;66749;47.406;18.822;2023-02-28T00:04:57;101498.25;;;2.08;56.06
76994;BME280;66749;47.406;18.822;2023-02-28T00:05:34;101499.97;;;2.08;56.03
76994;BME280;66749;47.406;18.822;2023-02-28T00:06:07;101501.69;;;2.07;55.96
76994;BME280;66749;47.406;18.822;2023-02-28T00:06:40;101502.53;;;2.11;55.97
76994;BME280;66749;47.406;18.822;2023-02-28T00:07:13;101502.53;;;2.11;56.24
76994;BME280;66749;47.406;18.822;2023-02-28T00:07:45;101510.25;;;2.11;56.42
76994;BME280;66749;47.406;18.822;2023-02-28T00:08:17;101502.53;;;2.09;56.31
76994;BME280;66749;47.406;18.822;2023-02-28T00:08:49;101502.56;;;2.08;56.36
76994;BME280;66749;47.406;18.822;2023-02-28T00:09:21;101505.13;;;2.08;56.93
76994;BME280;66749;47.406;18.822;2023-02-28T00:09:53;101501.69;;;2.07;56.61
76994;BME280;66749;47.406;18.822;2023-02-28T00:10:28;101500.00;;;2.06;56.53
76994;BME280;66749;47.406;18.822;2023-02-28T00:11:05;101505.16;;;2.05;57.17
76994;BME280;66749;47.406;18.822;2023-02-28T00:11:37;101502.56;;;2.03;56.95
76994;BME280;66749;47.406;18.822;2023-02-28T00:12:09;101506.00;;;2.01;57.62
76994;BME280;66749;47.406;18.822;2023-02-28T00:12:41;101503.41;;;2.02;58.08
76994;BME280;66749;47.406;18.822;2023-02-28T00:13:13;101504.28;;;2.01;58.07
76994;BME280;66749;47.406;18.822;2023-02-28T00:13:46;101512.00;;;2.03;57.94
76994;BME280;66749;47.406;18.822;2023-02-28T00:14:18;101506.00;;;2.01;58.20
76994;BME280;66749;47.406;18.822;2023-02-28T00:14:50;101513.75;;;1.99;58.48
76994;BME280;66749;47.406;18.822;2023-02-28T00:15:23;101509.44;;;2.01;58.49
76994;BME280;66749;47.406;18.822;2023-02-28T00:16:02;101499.97;;;2.03;58.26
76994;BME280;66749;47.406;18.822;2023-02-28T00:16:35;101508.56;;;2.05;57.82
76994;BME280;66749;47.406;18.822;2023-02-28T00:17:07;101504.28;;;2.06;57.61
76994;BME280;66749;47.406;18.822;2023-02-28T00:17:38;101507.72;;;2.06;57.33
76994;BME280;66749;47.406;18.822;2023-02-28T00:18:10;101501.69;;;2.07;57.47
76994;BME280;66749;47.406;18.822;2023-02-28T00:18:43;101507.72;;;2.05;57.01
76994;BME280;66749;47.406;18.822;2023-02-28T00:19:15;101511.13;;;2.07;56.81
76994;BME280;66749;47.406;18.822;2023-02-28T00:19:48;101507.72;;;2.06;56.97
76994;BME280;66749;47.406;18.822;2023-02-28T00:20:20;101513.72;;;2.05;56.78
76994;BME280;66749;47.406;18.822;2023-02-28T00:20:52;101507.72;;;2.06;56.67
76994;BME280;66749;47.406;18.822;2023-02-28T00:21:24;101502.56;;;2.05;56.97
76994;BME280;66749;47.406;18.822;2023-02-28T00:21:55;101511.16;;;2.05;57.11
76994;BME280;66749;47.406;18.822;2023-02-28T00:22:27;101514.56;;;2.07;57.00
76994;BME280;66749;47.406;18.822;2023-02-28T00:22:59;101514.56;;;2.09;57.26
76994;BME280;66749;47.406;18.822;2023-02-28T00:23:31;101513.72;;;2.08;57.76
76994;BME280;66749;47.406;18.822;2023-02-28T00:24:03;101520.59;;;2.06;57.29
76994;BME280;66749;47.406;18.822;2023-02-28T00:24:35;101509.41;;;2.07;57.20
76994;BME280;66749;47.406;18.822;2023-02-28T00:25:09;101522.31;;;2.06;56.53
76994;BME280;66749;47.406;18.822;2023-02-28T00:25:41;101514.56;;;2.07;56.95
76994;BME280;66749;47.406;18.822;2023-02-28T00:26:13;101512.84;;;2.08;56.62
76994;BME280;66749;47.406;18.822;2023-02-28T00:26:44;101521.44;;;2.05;56.42
76994;BME280;66749;47.406;18.822;2023-02-28T00:27:16;101518.88;;;2.05;56.05
76994;BME280;66749;47.406;18.822;2023-02-28T00:27:48;101519.72;;;2.07;55.89
76994;BME280;66749;47.406;18.822;2023-02-28T00:28:21;101523.16;;;2.08;56.00
76994;BME280;66749;47.406;18.822;2023-02-28T00:28:53;101524.84;;;2.09;56.27
76994;BME280;66749;47.406;18.822;2023-02-28T00:29:24;101516.28;;;2.08;56.31
76994;BME280;66749;47.406;18.822;2023-02-28T00:29:56;101525.72;;;2.09;56.60
76994;BME280;66749;47.406;18.822;2023-02-28T00:30:28;101515.41;;;2.09;56.69
76994;BME280;66749;47.406;18.822;2023-02-28T00:30:59;101516.28;;;2.13;56.62
76994;BME280;66749;47.406;18.822;2023-02-28T00:31:31;101518.84;;;2.14;56.29
76994;BME280;66749;47.406;18.822;2023-02-28T00:32:04;101517.13;;;2.13;56.37
76994;BME280;66749;47.406;18.822;2023-02-28T00:32:36;101517.13;;;2.13;56.47
76994;BME280;66749;47.406;18.822;2023-02-28T00:33:08;101524.00;;;2.14;56.39
76994;BME280;66749;47.406;18.822;2023-02-28T00:33:39;101515.41;;;2.14;56.62
76994;BME280;66749;47.406;18.822;2023-02-28T00:34:11;101528.28;;;2.12;56.56
76994;BME280;66749;47.406;18.822;2023-02-28T00:34:43;101524.84;;;2.15;56.42
76994;BME280;66749;47.406;18.822;2023-02-28T00:35:15;101521.41;;;2.16;56.45
76994;BME280;66749;47.406;18.822;2023-02-28T00:35:46;101526.56;;;2.14;56.57
76994;BME280;66749;47.406;18.822;2023-02-28T00:36:19;101525.69;;;2.18;56.20
76994;BME280;66749;47.406;18.822;2023-02-28T00:36:51;101523.09;;;2.18;56.23
76994;BME280;66749;47.406;18.822;2023-02-28T00:37:23;101523.94;;;2.19;56.29
76994;BME280;66749;47.406;18.822;2023-02-28T00:37:55;101520.53;;;2.18;56.38
76994;BME280;66749;47.406;18.822;2023-02-28T00:38:27;101526.53;;;2.22;56.96
76994;BME280;66749;47.406;18.822;2023-02-28T00:38:58;101529.97;;;2.22;57.20
76994;BME280;66749;47.406;18.822;2023-02-28T00:39:30;101526.53;;;2.19;57.14
76994;BME280;66749;47.406;18.822;2023-02-28T00:40:02;101527.41;;;2.18;56.92
76994;BME280;66749;47.406;18.822;2023-02-28T00:40:36;101523.16;;;2.12;57.18
76994;BME280;66749;47.406;18.822;2023-02-28T00:41:08;101523.97;;;2.17;56.64
76994;BME280;66749;47.406;18.822;2023-02-28T00:41:40;101526.53;;;2.17;56.74
76994;BME280;66749;47.406;18.822;2023-02-28T00:42:12;101527.41;;;2.19;56.75
76994;BME280;66749;47.406;18.822;2023-02-28T00:42:44;101529.13;;;2.17;57.10
76994;BME280;66749;47.406;18.822;2023-02-28T00:43:15;101525.69;;;2.15;57.41
76994;BME280;66749;47.406;18.822;2023-02-28T00:43:47;101529.97;;;2.16;57.95
76994;BME280;66749;47.406;18.822;2023-02-28T00:44:19;101534.25;;;2.19;58.00
76994;BME280;66749;47.406;18.822;2023-02-28T00:44:52;101529.97;;;2.18;57.90
76994;BME280;66749;47.406;18.822;2023-02-28T00:45:24;101531.69;;;2.17;57.43
76994;BME280;66749;47.406;18.822;2023-02-28T00:45:56;101539.41;;;2.17;57.41
76994;BME280;66749;47.406;18.822;2023-02-28T00:46:27;101530.81;;;2.18;57.57
76994;BME280;66749;47.406;18.822;2023-02-28T00:47:00;101530.81;;;2.18;58.08
76994;BME280;66749;47.406;18.822;2023-02-28T00:47:32;101526.53;;;2.19;57.85
76994;BME280;66749;47.406;18.822;2023-02-28T00:48:04;101530.81;;;2.18;57.82
76994;BME280;66749;47.406;18.822;2023-02-28T00:48:36;101533.41;;;2.20;58.07
76994;BME280;66749;47.406;18.822;2023-02-28T00:49:07;101529.13;;;2.17;57.86
76994;BME280;66749;47.406;18.822;2023-02-28T00:49:40;101540.28;;;2.15;57.99
76994;BME280;66749;47.406;18.822;2023-02-28T00:50:12;101542.00;;;2.16;58.47
76994;BME280;66749;47.406;18.822;2023-02-28T00:50:43;101537.72;;;2.13;58.55
76994;BME280;66749;47.406;18.822;2023-02-28T00:51:15;101536.00;;;2.15;58.34
76994;BME280;66749;47.406;18.822;2023-02-28T00:51:47;101539.44;;;2.14;58.58
76994;BME280;66749;47.406;18.822;2023-02-28T00:52:18;101535.16;;;2.13;58.56
76994;BME280;66749;47.406;18.822;2023-02-28T00:52:50;101533.44;;;2.12;58.59
76994;BME280;66749;47.406;18.822;2023-02-28T00:53:22;101536.88;;;2.14;59.13
76994;BME280;66749;47.406;18.822;2023-02-28T00:53:54;101536.88;;;2.13;59.48
76994;BME280;66749;47.406;18.822;2023-02-28T00:54:25;101530.84;;;2.14;59.52
76994;BME280;66749;47.406;18.822;2023-02-28T00:54:57;101540.28;;;2.15;59.45
76994;BME280;66749;47.406;18.822;2023-02-28T00:55:29;101538.59;;;2.12;59.79
76994;BME280;66749;47.406;18.822;2023-02-28T00:56:01;101537.72;;;2.15;59.40
76994;BME280;66749;47.406;18.822;2023-02-28T00:56:33;101536.00;;;2.15;59.31
76994;BME280;66749;47.406;18.822;2023-02-28T00:57:05;101535.16;;;2.12;59.70
76994;BME280;66749;47.406;18.822;2023-02-28T00:57:36;101535.16;;;2.13;59.89
76994;BME280;66749;47.406;18.822;2023-02-28T00:58:08;101536.88;;;2.14;59.34
76994;BME280;66749;47.406;18.822;2023-02-28T00:58:40;101533.44;;;2.14;59.16
76994;BME280;66749;47.406;18.822;2023-02-28T00:59:13;101526.56;;;2.14;59.07
76994;BME280;66749;47.406;18.822;2023-02-28T00:59:45;101529.97;;;2.16;58.29
76994;BME280;66749;47.406;18.822;2023-02-28T01:00:17;101536.00;;;2.15;57.82
76994;BME280;66749;47.406;18.822;2023-02-28T01:00:48;101536.84;;;2.11;58.78
76994;BME280;66749;47.406;18.822;2023-02-28T01:01:20;101538.56;;;2.11;58.85
76994;BME280;66749;47.406;18.822;2023-02-28T01:01:52;101531.72;;;2.07;59.46
76994;BME280;66749;47.406;18.822;2023-02-28T01:02:24;101529.13;;;2.11;59.50
76994;BME280;66749;47.406;18.822;2023-02-28T01:02:56;101539.44;;;2.11;59.19
76994;BME280;66749;47.406;18.822;2023-02-28T01:03:28;101532.56;;;2.10;57.76
76994;BME280;66749;47.406;18.822;2023-02-28T01:04:00;101529.13;;;2.11;58.01
76994;BME280;66749;47.406;18.822;2023-02-28T01:04:31;101535.16;;;2.13;57.66
76994;BME280;66749;47.406;18.822;2023-02-28T01:05:04;101536.84;;;2.17;56.69
76994;BME280;66749;47.406;18.822;2023-02-28T01:05:36;101535.97;;;2.17;56.75
76994;BME280;66749;47.406;18.822;2023-02-28T01:06:07;101537.72;;;2.15;56.52
76994;BME280;66749;47.406;18.822;2023-02-28T01:06:39;101534.25;;;2.17;56.09
76994;BME280;66749;47.406;18.822;2023-02-28T01:07:11;101531.72;;;2.14;56.18
76994;BME280;66749;47.406;18.822;2023-02-28T01:07:43;101539.41;;;2.17;56.12
76994;BME280;66749;47.406;18.822;2023-02-28T01:08:15;101542.84;;;2.16;57.17
76994;BME280;66749;47.406;18.822;2023-02-28T01:08:46;101535.16;;;2.13;57.28
76994;BME280;66749;47.406;18.822;2023-02-28T01:09:18;101542.88;;;2.15;57.85
76994;BME280;66749;47.406;18.822;2023-02-28T01:09:50;101536.84;;;2.11;58.24
76994;BME280;66749;47.406;18.822;2023-02-28T01:10:21;101542.00;;;2.14;58.60
76994;BME280;66749;47.406;18.822;2023-02-28T01:10:53;101542.88;;;2.07;58.82
76994;BME280;66749;47.406;18.822;2023-02-28T01:11:25;101543.75;;;2.05;58.70
76994;BME280;66749;47.406;18.822;2023-02-28T01:11:57;101540.31;;;2.07;58.13
76994;BME280;66749;47.406;18.822;2023-02-28T01:12:29;101536.03;;;2.06;58.72
76994;BME280;66749;47.406;18.822;2023-02-28T01:13:01;101540.34;;;2.04;58.58
76994;BME280;66749;47.406;18.822;2023-02-28T01:13:33;101531.72;;;2.07;58.71
76994;BME280;66749;47.406;18.822;2023-02-28T01:14:05;101537.75;;;2.07;58.63
76994;BME280;66749;47.406;18.822;2023-02-28T01:14:36;101536.88;;;2.07;58.42
76994;BME280;66749;47.406;18.822;2023-02-28T01:15:10;101535.19;;;2.06;58.20
76994;BME280;66749;47.406;18.822;2023-02-28T01:15:48;101539.47;;;2.05;58.14
76994;BME280;66749;47.406;18.822;2023-02-28T01:16:20;101532.63;;;2.04;58.78
76994;BME280;66749;47.406;18.822;2023-02-28T01:16:52;101533.47;;;2.05;58.58
76994;BME280;66749;47.406;18.822;2023-02-28T01:17:24;101530.88;;;2.03;58.58
76994;BME280;66749;47.406;18.822;2023-02-28T01:17:55;101530.88;;;2.02;58.32
76994;BME280;66749;47.406;18.822;2023-02-28T01:18:27;101530.91;;;1.99;59.01
76994;BME280;66749;47.406;18.822;2023-02-28T01:18:59;101532.59;;;2.01;58.58
76994;BME280;66749;47.406;18.822;2023-02-28T01:19:32;101534.34;;;1.99;59.07
76994;BME280;66749;47.406;18.822;2023-02-28T01:20:04;101532.63;;;1.98;58.83
76994;BME280;66749;47.406;18.822;2023-02-28T01:20:37;101530.91;;;1.94;59.22
76994;BME280;66749;47.406;18.822;2023-02-28T01:21:13;101536.03;;;1.94;59.60
76994;BME280;66749;47.406;18.822;2023-02-28T01:21:45;101534.34;;;1.93;59.33
76994;BME280;66749;47.406;18.822;2023-02-28T01:22:16;101535.19;;;1.93;59.64
76994;BME280;66749;47.406;18.822;2023-02-28T01:22:48;101536.91;;;1.93;60.07
76994;BME280;66749;47.406;18.822;2023-02-28T01:23:21;101534.31;;;1.96;59.56
76994;BME280;66749;47.406;18.822;2023-02-28T01:23:56;101538.63;;;1.92;59.73
76994;BME280;66749;47.406;18.822;2023-02-28T01:24:29;101542.06;;;1.91;60.22
76994;BME280;66749;47.406;18.822;2023-02-28T01:25:00;101540.34;;;1.90;60.21
76994;BME280;66749;47.406;18.822;2023-02-28T01:25:37;101532.63;;;1.89;60.37
76994;BME280;66749;47.406;18.822;2023-02-28T01:26:12;101530.06;;;1.87;60.22
76994;BME280;66749;47.406;18.822;2023-02-28T01:26:44;101536.06;;;1.88;59.71
76994;BME280;66749;47.406;18.822;2023-02-28T01:27:16;101530.06;;;1.90;59.90
76994;BME280;66749;47.406;18.822;2023-02-28T01:27:47;101529.19;;;1.88;60.29
76994;BME280;66749;47.406;18.822;2023-02-28T01:28:19;101529.19;;;1.87;59.81
76994;BME280;66749;47.406;18.822;2023-02-28T01:28:52;101536.91;;;1.87;60.28
76994;BME280;66749;47.406;18.822;2023-02-28T01:29:24;101530.91;;;1.88;60.03
76994;BME280;66749;47.406;18.822;2023-02-28T01:29:56;101536.94;;;1.90;60.17
76994;BME280;66749;47.406;18.822;2023-02-28T01:30:28;101532.63;;;1.89;60.41
76994;BME280;66749;47.406;18.822;2023-02-28T01:30:59;101525.75;;;1.88;59.56
76994;BME280;66749;47.406;18.822;2023-02-28T01:31:31;101528.34;;;1.86;59.63
76994;BME280;66749;47.406;18.822;2023-02-28T01:32:03;101524.06;;;1.85;60.11
76994;BME280;66749;47.406;18.822;2023-02-28T01:32:35;101529.19;;;1.87;59.74
76994;BME280;66749;47.406;18.822;2023-02-28T01:33:07;101528.34;;;1.85;59.88
76994;BME280;66749;47.406;18.822;2023-02-28T01:33:39;101525.78;;;1.82;60.35
76994;BME280;66749;47.406;18.822;2023-02-28T01:34:11;101527.50;;;1.84;60.20
76994;BME280;66749;47.406;18.822;2023-02-28T01:34:43;101524.06;;;1.85;60.41
76994;BME280;66749;47.406;18.822;2023-02-28T01:35:15;101526.63;;;1.85;59.95
76994;BME280;66749;47.406;18.822;2023-02-28T01:35:47;101529.22;;;1.85;60.57
76994;BME280;66749;47.406;18.822;2023-02-28T01:36:22;101521.50;;;1.84;60.87
76994;BME280;66749;47.406;18.822;2023-02-28T01:36:53;101525.78;;;1.86;60.58
76994;BME280;66749;47.406;18.822;2023-02-28T01:37:25;101526.66;;;1.82;60.77
76994;BME280;66749;47.406;18.822;2023-02-28T01:37:57;101527.50;;;1.86;60.78
76994;BME280;66749;47.406;18.822;2023-02-28T01:38:43;101527.50;;;1.86;61.02
76994;BME280;66749;47.406;18.822;2023-02-28T01:39:15;101524.06;;;1.84;60.58
76994;BME280;66749;47.406;18.822;2023-02-28T01:39:46;101524.06;;;1.82;61.11
76994;BME280;66749;47.406;18.822;2023-02-28T01:40:18;101527.50;;;1.86;60.77
76994;BME280;66749;47.406;18.822;2023-02-28T01:40:50;101526.63;;;1.87;60.80
76994;BME280;66749;47.406;18.822;2023-02-28T01:41:23;101528.34;;;1.88;60.66
76994;BME280;66749;47.406;18.822;2023-02-28T01:41:55;101529.22;;;1.85;59.99
76994;BME280;66749;47.406;18.822;2023-02-28T01:42:27;101533.50;;;1.86;59.88
76994;BME280;66749;47.406;18.822;2023-02-28T01:42:58;101527.47;;;1.87;59.84
76994;BME280;66749;47.406;18.822;2023-02-28T01:45:35;101530.06;;;1.90;59.88
76994;BME280;66749;47.406;18.822;2023-02-28T01:46:07;101530.03;;;1.89;59.77
76994;BME280;66749;47.406;18.822;2023-02-28T01:46:38;101524.06;;;1.91;60.33
76994;BME280;66749;47.406;18.822;2023-02-28T01:47:10;101527.47;;;1.92;59.95
76994;BME280;66749;47.406;18.822;2023-02-28T01:47:43;101530.06;;;1.92;60.25
76994;BME280;66749;47.406;18.822;2023-02-28T01:48:16;101528.34;;;1.92;60.54
76994;BME280;66749;47.406;18.822;2023-02-28T01:48:54;101531.75;;;1.96;60.15
76994;BME280;66749;47.406;18.822;2023-02-28T01:49:29;101527.47;;;1.98;60.10
76994;BME280;66749;47.406;18.822;2023-02-28T01:50:04;101531.75;;;2.01;60.07
76994;BME280;66749;47.406;18.822;2023-02-28T01:50:40;101533.47;;;1.99;59.45
76994;BME280;66749;47.406;18.822;2023-02-28T01:51:18;101530.88;;;2.00;59.77
76994;BME280;66749;47.406;18.822;2023-02-28T01:51:55;101532.59;;;2.00;59.51
76994;BME280;66749;47.406;18.822;2023-02-28T01:52:28;101530.03;;;1.98;59.62
76994;BME280;66749;47.406;18.822;2023-02-28T01:53:03;101534.31;;;2.02;58.98
76994;BME280;66749;47.406;18.822;2023-02-28T01:53:45;101539.47;;;2.05;59.10
76994;BME280;66749;47.406;18.822;2023-02-28T01:54:27;101525.75;;;2.00;59.43
76994;BME280;66749;47.406;18.822;2023-02-28T01:55:04;101528.31;;;2.02;58.98
76994;BME280;66749;47.406;18.822;2023-02-28T01:55:39;101520.59;;;2.00;59.55
76994;BME280;66749;47.406;18.822;2023-02-28T01:56:14;101530.00;;;2.03;59.14
76994;BME280;66749;47.406;18.822;2023-02-28T01:56:59;101530.03;;;2.04;59.06
76994;BME280;66749;47.406;18.822;2023-02-28T01:57:45;101534.31;;;2.05;58.59
76994;BME280;66749;47.406;18.822;2023-02-28T01:58:18;101529.16;;;2.04;59.06
76994;BME280;66749;47.406;18.822;2023-02-28T01:58:52;101528.28;;;2.03;59.47
76994;BME280;66749;47.406;18.822;2023-02-28T01:59:33;101530.03;;;2.04;59.54
76994;BME280;66749;47.406;18.822;2023-02-28T02:00:18;101528.28;;;2.03;59.45
76994;BME280;66749;47.406;18.822;2023-02-28T02:00:51;101529.16;;;2.05;59.01
76994;BME280;66749;47.406;18.822;2023-02-28T02:01:27;101526.59;;;2.02;58.73
76994;BME280;66749;47.406;18.822;2023-02-28T02:02:01;101530.88;;;2.03;59.06
76994;BME280;66749;47.406;18.822;2023-02-28T02:02:33;101528.31;;;2.05;59.34
76994;BME280;66749;47.406;18.822;2023-02-28T02:03:08;101522.31;;;2.01;58.80
76994;BME280;66749;47.406;18.822;2023-02-28T02:03:42;101527.47;;;2.04;59.49
76994;BME280;66749;47.406;18.822;2023-02-28T02:04:13;101521.44;;;2.04;59.19
76994;BME280;66749;47.406;18.822;2023-02-28T02:04:59;101519.75;;;2.04;59.07
76994;BME280;66749;47.406;18.822;2023-02-28T02:05:33;101525.72;;;2.03;59.17
76994;BME280;66749;47.406;18.822;2023-02-28T02:06:05;101523.16;;;2.02;59.35
76994;BME280;66749;47.406;18.822;2023-02-28T02:06:42;101523.16;;;2.03;59.68
76994;BME280;66749;47.406;18.822;2023-02-28T02:07:14;101521.44;;;2.05;59.83
76994;BME280;66749;47.406;18.822;2023-02-28T02:07:50;101526.59;;;2.07;59.22
76994;BME280;66749;47.406;18.822;2023-02-28T02:08:26;101523.16;;;2.08;59.33
76994;BME280;66749;47.406;18.822;2023-02-28T02:08:59;101525.72;;;2.06;59.54
76994;BME280;66749;47.406;18.822;2023-02-28T02:09:31;101524.88;;;2.07;59.55
76994;BME280;66749;47.406;18.822;2023-02-28T02:10:16;101523.13;;;2.09;59.95
76994;BME280;66749;47.406;18.822;2023-02-28T02:11:00;101525.69;;;2.11;59.83
76994;BME280;66749;47.406;18.822;2023-02-28T02:11:34;101511.97;;;2.10;59.99
76994;BME280;66749;47.406;18.822;2023-02-28T02:12:28;101519.69;;;2.10;59.44
76994;BME280;66749;47.406;18.822;2023-02-28T02:15:05;101515.41;;;2.11;60.08
76994;BME280;66749;47.406;18.822;2023-02-28T02:17:40;101524.84;;;2.09;59.95
76994;BME280;66749;47.406;18.822;2023-02-28T02:18:37;101524.84;;;2.09;60.38
76994;BME280;66749;47.406;18.822;2023-02-28T02:20:11;101515.41;;;2.09;59.47
76994;BME280;66749;47.406;18.822;2023-02-28T02:21:18;101526.56;;;2.10;60.13
76994;BME280;66749;47.406;18.822;2023-02-28T02:25:56;101527.41;;;2.10;60.09
76994;BME280;66749;47.406;18.822;2023-02-28T02:29:54;101518.84;;;2.08;59.46
76994;BME280;66749;47.406;18.822;2023-02-28T02:30:57;101526.59;;;2.07;59.99
76994;BME280;66749;47.406;18.822;2023-02-28T02:32:27;101524.84;;;2.10;60.74
76994;BME280;66749;47.406;18.822;2023-02-28T02:35:13;101524.84;;;2.09;59.52
76994;BME280;66749;47.406;18.822;2023-02-28T02:36:05;101512.84;;;2.08;60.06
76994;BME280;66749;47.406;18.822;2023-02-28T02:36:44;101524.00;;;2.07;60.52
76994;BME280;66749;47.406;18.822;2023-02-28T02:39:13;101530.88;;;2.12;60.09
76994;BME280;66749;47.406;18.822;2023-02-28T02:40:50;101519.69;;;2.13;59.59
76994;BME280;66749;47.406;18.822;2023-02-28T02:41:39;101521.38;;;2.17;59.29
76994;BME280;66749;47.406;18.822;2023-02-28T02:42:19;101514.53;;;2.16;59.65
76994;BME280;66749;47.406;18.822;2023-02-28T02:43:53;101519.66;;;2.18;59.63
76994;BME280;66749;47.406;18.822;2023-02-28T02:44:34;101517.09;;;2.16;59.97
76994;BME280;66749;47.406;18.822;2023-02-28T02:45:16;101521.41;;;2.16;59.64
76994;BME280;66749;47.406;18.822;2023-02-28T02:45:57;101511.13;;;2.13;60.37
76994;BME280;66749;47.406;18.822;2023-02-28T02:46:50;101517.16;;;2.12;60.86
76994;BME280;66749;47.406;18.822;2023-02-28T02:47:26;101524.03;;;2.05;60.74
76994;BME280;66749;47.406;18.822;2023-02-28T02:48:01;101509.44;;;2.06;60.97
76994;BME280;66749;47.406;18.822;2023-02-28T02:48:37;101519.72;;;2.07;60.79
76994;BME280;66749;47.406;18.822;2023-02-28T02:49:20;101523.13;;;2.09;60.69
76994;BME280;66749;47.406;18.822;2023-02-28T02:49:55;101520.59;;;2.06;61.12
76994;BME280;66749;47.406;18.822;2023-02-28T02:50:38;101511.13;;;2.07;61.21
76994;BME280;66749;47.406;18.822;2023-02-28T02:51:14;101521.44;;;2.07;61.33
76994;BME280;66749;47.406;18.822;2023-02-28T02:51:49;101519.72;;;2.03;61.53
76994;BME280;66749;47.406;18.822;2023-02-28T02:52:28;101523.16;;;2.03;61.04
76994;BME280;66749;47.406;18.822;2023-02-28T02:53:05;101522.31;;;1.98;61.37
76994;BME280;66749;47.406;18.822;2023-02-28T02:53:44;101529.16;;;2.02;61.73
76994;BME280;66749;47.406;18.822;2023-02-28T02:54:24;101525.75;;;2.00;61.32
76994;BME280;66749;47.406;18.822;2023-02-28T02:55:02;101528.34;;;1.97;61.61
76994;BME280;66749;47.406;18.822;2023-02-28T02:55:40;101526.63;;;1.98;61.61
76994;BME280;66749;47.406;18.822;2023-02-28T02:56:14;101527.44;;;2.01;61.06
76994;BME280;66749;47.406;18.822;2023-02-28T02:56:48;101526.59;;;2.01;61.78
76994;BME280;66749;47.406;18.822;2023-02-28T02:57:30;101530.91;;;1.99;61.59
76994;BME280;66749;47.406;18.822;2023-02-28T02:58:08;101524.03;;;1.99;62.02
76994;BME280;66749;47.406;18.822;2023-02-28T02:58:43;101533.47;;;1.97;61.89
76994;BME280;66749;47.406;18.822;2023-02-28T02:59:20;101525.75;;;1.95;61.89
76994;BME280;66749;47.406;18.822;2023-02-28T02:59:55;101532.63;;;1.97;61.99
76994;BME280;66749;47.406;18.822;2023-02-28T03:00:38;101533.47;;;1.99;61.98
76994;BME280;66749;47.406;18.822;2023-02-28T03:01:15;101524.91;;;1.97;61.78
76994;BME280;66749;47.406;18.822;2023-02-28T03:02:00;101531.75;;;1.93;61.14
76994;BME280;66749;47.406;18.822;2023-02-28T03:02:34;101530.03;;;1.93;61.65
76994;BME280;66749;47.406;18.822;2023-02-28T03:03:09;101528.34;;;1.92;62.07
76994;BME280;66749;47.406;18.822;2023-02-28T03:03:43;101532.63;;;1.92;61.44
76994;BME280;66749;47.406;18.822;2023-02-28T03:04:20;101530.91;;;1.94;61.67
76994;BME280;66749;47.406;18.822;2023-02-28T03:04:56;101532.59;;;1.95;61.85
76994;BME280;66749;47.406;18.822;2023-02-28T03:05:50;101526.59;;;1.94;61.57
76994;BME280;66749;47.406;18.822;2023-02-28T03:06:22;101530.88;;;1.95;61.61
76994;BME280;66749;47.406;18.822;2023-02-28T03:06:54;101528.31;;;1.95;61.86
76994;BME280;66749;47.406;18.822;2023-02-28T03:07:27;101524.03;;;1.96;61.92
76994;BME280;66749;47.406;18.822;2023-02-28T03:07:58;101535.22;;;1.97;61.84
76994;BME280;66749;47.406;18.822;2023-02-28T03:08:35;101532.59;;;1.95;62.39
76994;BME280;66749;47.406;18.822;2023-02-28T03:09:07;101525.75;;;1.94;62.86
76994;BME280;66749;47.406;18.822;2023-02-28T03:09:38;101521.47;;;1.94;62.21
76994;BME280;66749;47.406;18.822;2023-02-28T03:10:46;101535.19;;;1.98;62.17
76994;BME280;66749;47.406;18.822;2023-02-28T03:11:20;101531.75;;;1.94;62.52
76994;BME280;66749;47.406;18.822;2023-02-28T03:11:55;101528.31;;;1.95;62.57
76994;BME280;66749;47.406;18.822;2023-02-28T03:12:40;101530.06;;;1.97;62.39
76994;BME280;66749;47.406;18.822;2023-02-28T03:15:01;101532.63;;;1.98;62.04
76994;BME280;66749;47.406;18.822;2023-02-28T03:15:57;101535.22;;;1.97;62.17
76994;BME280;66749;47.406;18.822;2023-02-28T03:16:56;101532.59;;;1.95;62.05
76994;BME280;66749;47.406;18.822;2023-02-28T03:19:55;101529.19;;;1.93;62.23
76994;BME280;66749;47.406;18.822;2023-02-28T03:21:19;101534.34;;;1.91;62.86
76994;BME280;66749;47.406;18.822;2023-02-28T03:22:51;101530.94;;;1.89;62.00
76994;BME280;66749;47.406;18.822;2023-02-28T03:23:40;101530.94;;;1.85;62.59
76994;BME280;66749;47.406;18.822;2023-02-28T03:25:59;101530.91;;;1.86;62.67
76994;BME280;66749;47.406;18.822;2023-02-28T03:26:49;101536.06;;;1.85;62.31
76994;BME280;66749;47.406;18.822;2023-02-28T03:29:50;101536.94;;;1.84;63.17
76994;BME280;66749;47.406;18.822;2023-02-28T03:30:35;101532.66;;;1.84;62.69
76994;BME280;66749;47.406;18.822;2023-02-28T03:31:33;101535.22;;;1.86;63.37
76994;BME280;66749;47.406;18.822;2023-02-28T03:32:24;101543.78;;;1.85;62.87
76994;BME280;66749;47.406;18.822;2023-02-28T03:33:06;101536.94;;;1.85;63.08
76994;BME280;66749;47.406;18.822;2023-02-28T03:33:46;101538.66;;;1.85;62.39